sensor_id;sensor_type;location;lat;lon;timestamp;P1;durP1;ratioP1;P2;durP2;ratioP2
40088;SDS011;25793;55.706;13.186;2022-11-15T00:00:43;575.20;;;452.55;;
40088;SDS011;25793;55.706;13.186;2022-11-15T00:03:29;575.78;;;459.58;;
40088;SDS011;25793;55.706;13.186;2022-11-15T00:06:14;577.80;;;464.48;;
40088;SDS011;25793;55.706;13.186;2022-11-15T00:09:00;583.50;;;478.88;;
40088;SDS011;25793;55.706;13.186;2022-11-15T00:11:45;581.35;;;478.85;;
40088;SDS011;25793;55.706;13.186;2022-11-15T00:14:31;586.92;;;487.05;;
40088;SDS011;25793;55.706;13.186;2022-11-15T00:17:16;578.85;;;477.77;;
40088;SDS011;25793;55.706;13.186;2022-11-15T00:20:01;580.75;;;480.02;;
40088;SDS011;25793;55.706;13.186;2022-11-15T00:22:47;577.30;;;478.67;;
40088;SDS011;25793;55.706;13.186;2022-11-15T00:25:33;582.38;;;482.75;;
40088;SDS011;25793;55.706;13.186;2022-11-15T00:28:18;578.63;;;476.73;;
40088;SDS011;25793;55.706;13.186;2022-11-15T00:31:04;580.70;;;491.13;;
40088;SDS011;25793;55.706;13.186;2022-11-15T00:33:51;578.65;;;487.48;;
40088;SDS011;25793;55.706;13.186;2022-11-15T00:36:36;581.57;;;485.77;;
40088;SDS011;25793;55.706;13.186;2022-11-15T00:39:21;583.88;;;481.92;;
40088;SDS011;25793;55.706;13.186;2022-11-15T00:42:07;578.70;;;485.20;;
40088;SDS011;25793;55.706;13.186;2022-11-15T00:44:52;581.40;;;486.40;;
40088;SDS011;25793;55.706;13.186;2022-11-15T00:47:38;585.53;;;495.02;;
40088;SDS011;25793;55.706;13.186;2022-11-15T00:50:23;583.37;;;493.13;;
40088;SDS011;25793;55.706;13.186;2022-11-15T00:53:08;583.33;;;493.15;;
40088;SDS011;25793;55.706;13.186;2022-11-15T00:55:54;583.83;;;497.00;;
40088;SDS011;25793;55.706;13.186;2022-11-15T00:58:39;579.75;;;492.42;;
40088;SDS011;25793;55.706;13.186;2022-11-15T01:01:24;577.97;;;488.98;;
40088;SDS011;25793;55.706;13.186;2022-11-15T01:04:09;581.08;;;497.23;;
40088;SDS011;25793;55.706;13.186;2022-11-15T01:06:55;577.60;;;493.88;;
40088;SDS011;25793;55.706;13.186;2022-11-15T01:09:40;578.25;;;494.95;;
40088;SDS011;25793;55.706;13.186;2022-11-15T01:12:25;584.67;;;504.93;;
40088;SDS011;25793;55.706;13.186;2022-11-15T01:15:11;587.47;;;501.23;;
40088;SDS011;25793;55.706;13.186;2022-11-15T01:17:56;582.93;;;505.47;;
40088;SDS011;25793;55.706;13.186;2022-11-15T01:20:41;587.83;;;503.23;;
40088;SDS011;25793;55.706;13.186;2022-11-15T01:23:27;588.22;;;509.60;;
40088;SDS011;25793;55.706;13.186;2022-11-15T01:26:13;585.85;;;508.67;;
40088;SDS011;25793;55.706;13.186;2022-11-15T01:29:00;585.40;;;506.58;;
40088;SDS011;25793;55.706;13.186;2022-11-15T01:31:45;582.80;;;506.65;;
40088;SDS011;25793;55.706;13.186;2022-11-15T01:34:30;582.28;;;500.67;;
40088;SDS011;25793;55.706;13.186;2022-11-15T01:37:16;588.15;;;506.90;;
40088;SDS011;25793;55.706;13.186;2022-11-15T01:40:01;583.45;;;494.60;;
40088;SDS011;25793;55.706;13.186;2022-11-15T01:42:46;583.63;;;497.40;;
40088;SDS011;25793;55.706;13.186;2022-11-15T01:45:31;585.87;;;494.97;;
40088;SDS011;25793;55.706;13.186;2022-11-15T01:48:16;587.63;;;497.02;;
40088;SDS011;25793;55.706;13.186;2022-11-15T01:51:07;581.17;;;486.00;;
40088;SDS011;25793;55.706;13.186;2022-11-15T01:53:56;590.30;;;492.63;;
40088;SDS011;25793;55.706;13.186;2022-11-15T01:56:59;590.93;;;490.33;;
40088;SDS011;25793;55.706;13.186;2022-11-15T01:59:55;590.35;;;491.33;;
40088;SDS011;25793;55.706;13.186;2022-11-15T02:02:41;589.75;;;492.75;;
40088;SDS011;25793;55.706;13.186;2022-11-15T02:05:27;576.08;;;485.00;;
40088;SDS011;25793;55.706;13.186;2022-11-15T02:08:15;575.15;;;485.77;;
40088;SDS011;25793;55.706;13.186;2022-11-15T02:11:08;581.10;;;486.20;;
40088;SDS011;25793;55.706;13.186;2022-11-15T02:13:54;582.83;;;493.83;;
40088;SDS011;25793;55.706;13.186;2022-11-15T02:29:43;585.97;;;503.55;;
40088;SDS011;25793;55.706;13.186;2022-11-15T02:32:46;591.42;;;508.42;;
40088;SDS011;25793;55.706;13.186;2022-11-15T02:35:52;593.90;;;509.67;;
40088;SDS011;25793;55.706;13.186;2022-11-15T02:38:53;594.28;;;509.15;;
40088;SDS011;25793;55.706;13.186;2022-11-15T02:41:52;595.92;;;505.02;;
40088;SDS011;25793;55.706;13.186;2022-11-15T02:44:45;595.20;;;499.73;;
40088;SDS011;25793;55.706;13.186;2022-11-15T02:47:32;591.38;;;499.42;;
40088;SDS011;25793;55.706;13.186;2022-11-15T02:50:25;592.40;;;495.50;;
40088;SDS011;25793;55.706;13.186;2022-11-15T02:53:13;596.67;;;495.58;;
40088;SDS011;25793;55.706;13.186;2022-11-15T02:55:59;596.85;;;489.73;;
40088;SDS011;25793;55.706;13.186;2022-11-15T03:04:56;596.58;;;502.15;;
40088;SDS011;25793;55.706;13.186;2022-11-15T03:07:51;591.03;;;493.87;;
40088;SDS011;25793;55.706;13.186;2022-11-15T03:19:45;587.08;;;486.50;;
40088;SDS011;25793;55.706;13.186;2022-11-15T03:22:33;586.85;;;487.73;;
40088;SDS011;25793;55.706;13.186;2022-11-15T03:25:22;583.53;;;484.27;;
40088;SDS011;25793;55.706;13.186;2022-11-15T03:28:12;584.78;;;488.20;;
40088;SDS011;25793;55.706;13.186;2022-11-15T03:31:01;592.35;;;497.38;;
40088;SDS011;25793;55.706;13.186;2022-11-15T03:34:10;583.63;;;490.85;;
40088;SDS011;25793;55.706;13.186;2022-11-15T03:36:58;591.25;;;490.20;;
40088;SDS011;25793;55.706;13.186;2022-11-15T03:39:44;597.55;;;504.33;;
40088;SDS011;25793;55.706;13.186;2022-11-15T03:42:35;598.72;;;508.77;;
40088;SDS011;25793;55.706;13.186;2022-11-15T03:45:43;596.63;;;502.70;;
40088;SDS011;25793;55.706;13.186;2022-11-15T03:48:37;597.40;;;507.07;;
40088;SDS011;25793;55.706;13.186;2022-11-15T03:51:28;595.33;;;495.60;;
40088;SDS011;25793;55.706;13.186;2022-11-15T03:54:14;598.03;;;501.70;;
40088;SDS011;25793;55.706;13.186;2022-11-15T03:56:59;600.65;;;504.15;;
40088;SDS011;25793;55.706;13.186;2022-11-15T03:59:44;598.95;;;501.42;;
40088;SDS011;25793;55.706;13.186;2022-11-15T04:02:30;594.13;;;509.10;;
40088;SDS011;25793;55.706;13.186;2022-11-15T04:05:15;597.58;;;516.92;;
40088;SDS011;25793;55.706;13.186;2022-11-15T04:08:00;592.80;;;511.25;;
40088;SDS011;25793;55.706;13.186;2022-11-15T04:10:48;597.58;;;515.42;;
40088;SDS011;25793;55.706;13.186;2022-11-15T04:13:33;606.90;;;516.42;;
40088;SDS011;25793;55.706;13.186;2022-11-15T04:16:18;604.83;;;522.42;;
40088;SDS011;25793;55.706;13.186;2022-11-15T04:19:04;609.70;;;518.22;;
40088;SDS011;25793;55.706;13.186;2022-11-15T04:22:08;613.83;;;514.60;;
40088;SDS011;25793;55.706;13.186;2022-11-15T04:25:11;613.40;;;516.57;;
40088;SDS011;25793;55.706;13.186;2022-11-15T04:27:56;607.22;;;508.98;;
40088;SDS011;25793;55.706;13.186;2022-11-15T04:30:42;617.63;;;522.72;;
40088;SDS011;25793;55.706;13.186;2022-11-15T04:33:27;617.50;;;511.75;;
40088;SDS011;25793;55.706;13.186;2022-11-15T04:36:13;614.83;;;514.13;;
40088;SDS011;25793;55.706;13.186;2022-11-15T04:39:16;615.95;;;513.10;;
40088;SDS011;25793;55.706;13.186;2022-11-15T04:42:02;614.38;;;514.00;;
40088;SDS011;25793;55.706;13.186;2022-11-15T04:44:47;614.03;;;518.80;;
40088;SDS011;25793;55.706;13.186;2022-11-15T04:47:32;610.55;;;516.00;;
40088;SDS011;25793;55.706;13.186;2022-11-15T04:50:17;609.25;;;516.85;;
40088;SDS011;25793;55.706;13.186;2022-11-15T04:53:03;597.85;;;508.02;;
40088;SDS011;25793;55.706;13.186;2022-11-15T04:55:48;604.05;;;508.17;;
40088;SDS011;25793;55.706;13.186;2022-11-15T04:58:34;601.47;;;513.42;;
40088;SDS011;25793;55.706;13.186;2022-11-15T05:01:19;608.42;;;510.80;;
40088;SDS011;25793;55.706;13.186;2022-11-15T05:04:05;587.28;;;488.33;;
40088;SDS011;25793;55.706;13.186;2022-11-15T05:07:05;577.63;;;479.42;;
40088;SDS011;25793;55.706;13.186;2022-11-15T05:09:50;578.80;;;480.23;;
40088;SDS011;25793;55.706;13.186;2022-11-15T05:12:35;575.45;;;474.02;;
40088;SDS011;25793;55.706;13.186;2022-11-15T05:15:21;573.42;;;475.98;;
40088;SDS011;25793;55.706;13.186;2022-11-15T05:18:07;575.30;;;475.38;;
40088;SDS011;25793;55.706;13.186;2022-11-15T05:20:52;577.05;;;479.25;;
40088;SDS011;25793;55.706;13.186;2022-11-15T05:23:38;574.00;;;474.30;;
40088;SDS011;25793;55.706;13.186;2022-11-15T05:26:23;579.78;;;474.75;;
40088;SDS011;25793;55.706;13.186;2022-11-15T05:29:09;581.85;;;478.92;;
40088;SDS011;25793;55.706;13.186;2022-11-15T05:32:00;582.30;;;483.48;;
40088;SDS011;25793;55.706;13.186;2022-11-15T05:34:49;586.20;;;482.07;;
40088;SDS011;25793;55.706;13.186;2022-11-15T05:37:35;582.47;;;482.50;;
40088;SDS011;25793;55.706;13.186;2022-11-15T05:40:20;575.25;;;484.52;;
40088;SDS011;25793;55.706;13.186;2022-11-15T05:43:06;582.25;;;489.73;;
40088;SDS011;25793;55.706;13.186;2022-11-15T05:45:51;579.00;;;488.35;;
40088;SDS011;25793;55.706;13.186;2022-11-15T05:48:37;583.08;;;500.85;;
40088;SDS011;25793;55.706;13.186;2022-11-15T05:51:26;573.63;;;489.67;;
40088;SDS011;25793;55.706;13.186;2022-11-15T05:54:14;568.10;;;481.42;;
40088;SDS011;25793;55.706;13.186;2022-11-15T05:57:01;574.47;;;484.63;;
40088;SDS011;25793;55.706;13.186;2022-11-15T05:59:46;565.33;;;489.63;;
40088;SDS011;25793;55.706;13.186;2022-11-15T06:02:31;565.97;;;480.23;;
40088;SDS011;25793;55.706;13.186;2022-11-15T06:05:17;569.22;;;476.92;;
40088;SDS011;25793;55.706;13.186;2022-11-15T06:08:02;572.15;;;477.92;;
40088;SDS011;25793;55.706;13.186;2022-11-15T06:10:47;575.53;;;473.65;;
40088;SDS011;25793;55.706;13.186;2022-11-15T06:13:33;562.65;;;465.33;;
40088;SDS011;25793;55.706;13.186;2022-11-15T06:16:18;571.47;;;475.58;;
40088;SDS011;25793;55.706;13.186;2022-11-15T06:19:10;568.25;;;462.13;;
40088;SDS011;25793;55.706;13.186;2022-11-15T06:21:55;562.00;;;468.63;;
40088;SDS011;25793;55.706;13.186;2022-11-15T06:24:40;565.97;;;469.02;;
40088;SDS011;25793;55.706;13.186;2022-11-15T06:27:25;583.50;;;473.70;;
40088;SDS011;25793;55.706;13.186;2022-11-15T06:30:11;584.28;;;479.35;;
40088;SDS011;25793;55.706;13.186;2022-11-15T06:33:00;570.13;;;468.52;;
40088;SDS011;25793;55.706;13.186;2022-11-15T06:35:50;565.63;;;462.60;;
40088;SDS011;25793;55.706;13.186;2022-11-15T06:38:37;564.25;;;471.88;;
40088;SDS011;25793;55.706;13.186;2022-11-15T06:41:22;577.75;;;483.25;;
40088;SDS011;25793;55.706;13.186;2022-11-15T06:44:07;568.85;;;462.90;;
40088;SDS011;25793;55.706;13.186;2022-11-15T06:46:53;570.50;;;465.13;;
40088;SDS011;25793;55.706;13.186;2022-11-15T06:49:39;575.70;;;465.65;;
40088;SDS011;25793;55.706;13.186;2022-11-15T06:52:24;602.23;;;481.97;;
40088;SDS011;25793;55.706;13.186;2022-11-15T06:55:12;569.53;;;457.40;;
40088;SDS011;25793;55.706;13.186;2022-11-15T06:57:58;572.03;;;450.53;;
40088;SDS011;25793;55.706;13.186;2022-11-15T07:00:43;574.60;;;455.42;;
40088;SDS011;25793;55.706;13.186;2022-11-15T07:03:29;569.63;;;457.73;;
40088;SDS011;25793;55.706;13.186;2022-11-15T07:06:15;570.95;;;449.73;;
40088;SDS011;25793;55.706;13.186;2022-11-15T07:09:01;574.10;;;446.50;;
40088;SDS011;25793;55.706;13.186;2022-11-15T07:11:59;583.17;;;478.38;;
40088;SDS011;25793;55.706;13.186;2022-11-15T07:14:51;578.80;;;465.08;;
40088;SDS011;25793;55.706;13.186;2022-11-15T07:17:37;566.30;;;457.85;;
40088;SDS011;25793;55.706;13.186;2022-11-15T07:20:22;595.45;;;452.60;;
40088;SDS011;25793;55.706;13.186;2022-11-15T07:23:07;568.53;;;450.95;;
40088;SDS011;25793;55.706;13.186;2022-11-15T07:25:53;568.83;;;455.75;;
40088;SDS011;25793;55.706;13.186;2022-11-15T07:28:38;573.80;;;458.50;;
40088;SDS011;25793;55.706;13.186;2022-11-15T07:31:24;567.30;;;453.33;;
40088;SDS011;25793;55.706;13.186;2022-11-15T07:34:09;574.67;;;461.77;;
40088;SDS011;25793;55.706;13.186;2022-11-15T07:36:55;568.57;;;453.30;;
40088;SDS011;25793;55.706;13.186;2022-11-15T07:39:42;568.58;;;444.05;;
40088;SDS011;25793;55.706;13.186;2022-11-15T07:42:30;567.92;;;453.50;;
40088;SDS011;25793;55.706;13.186;2022-11-15T07:45:39;566.28;;;452.40;;
40088;SDS011;25793;55.706;13.186;2022-11-15T07:48:28;568.20;;;437.77;;
40088;SDS011;25793;55.706;13.186;2022-11-15T07:51:28;556.15;;;439.80;;
40088;SDS011;25793;55.706;13.186;2022-11-15T07:54:13;554.97;;;446.42;;
40088;SDS011;25793;55.706;13.186;2022-11-15T07:56:58;557.85;;;444.40;;
40088;SDS011;25793;55.706;13.186;2022-11-15T07:59:51;561.65;;;452.88;;
40088;SDS011;25793;55.706;13.186;2022-11-15T08:02:36;566.75;;;458.52;;
40088;SDS011;25793;55.706;13.186;2022-11-15T08:05:22;564.80;;;449.13;;
40088;SDS011;25793;55.706;13.186;2022-11-15T08:08:08;559.78;;;446.92;;
40088;SDS011;25793;55.706;13.186;2022-11-15T08:10:57;559.72;;;444.35;;
40088;SDS011;25793;55.706;13.186;2022-11-15T08:13:43;559.42;;;444.30;;
40088;SDS011;25793;55.706;13.186;2022-11-15T08:16:28;551.67;;;426.83;;
40088;SDS011;25793;55.706;13.186;2022-11-15T08:19:13;552.92;;;430.98;;
40088;SDS011;25793;55.706;13.186;2022-11-15T08:21:59;550.73;;;430.23;;
40088;SDS011;25793;55.706;13.186;2022-11-15T08:24:44;545.78;;;428.45;;
40088;SDS011;25793;55.706;13.186;2022-11-15T08:27:29;540.25;;;424.92;;
40088;SDS011;25793;55.706;13.186;2022-11-15T08:30:15;539.42;;;424.70;;
40088;SDS011;25793;55.706;13.186;2022-11-15T08:33:01;539.90;;;430.48;;
40088;SDS011;25793;55.706;13.186;2022-11-15T08:35:46;546.73;;;426.57;;
40088;SDS011;25793;55.706;13.186;2022-11-15T08:38:31;548.35;;;432.83;;
40088;SDS011;25793;55.706;13.186;2022-11-15T08:41:25;549.55;;;423.25;;
40088;SDS011;25793;55.706;13.186;2022-11-15T08:44:12;547.30;;;428.35;;
40088;SDS011;25793;55.706;13.186;2022-11-15T08:46:58;547.40;;;427.27;;
40088;SDS011;25793;55.706;13.186;2022-11-15T08:49:43;547.93;;;435.10;;
40088;SDS011;25793;55.706;13.186;2022-11-15T08:52:28;541.78;;;436.80;;
40088;SDS011;25793;55.706;13.186;2022-11-15T08:55:14;537.40;;;439.27;;
40088;SDS011;25793;55.706;13.186;2022-11-15T08:58:01;539.25;;;438.00;;
40088;SDS011;25793;55.706;13.186;2022-11-15T09:00:47;535.55;;;441.23;;
40088;SDS011;25793;55.706;13.186;2022-11-15T09:03:32;535.90;;;448.40;;
40088;SDS011;25793;55.706;13.186;2022-11-15T09:06:20;532.03;;;443.23;;
40088;SDS011;25793;55.706;13.186;2022-11-15T09:09:05;533.30;;;445.88;;
40088;SDS011;25793;55.706;13.186;2022-11-15T09:11:50;535.03;;;445.95;;
40088;SDS011;25793;55.706;13.186;2022-11-15T09:14:36;533.88;;;437.08;;
40088;SDS011;25793;55.706;13.186;2022-11-15T09:17:21;532.53;;;435.30;;
40088;SDS011;25793;55.706;13.186;2022-11-15T09:20:26;531.70;;;444.60;;
40088;SDS011;25793;55.706;13.186;2022-11-15T09:23:12;534.80;;;439.10;;
40088;SDS011;25793;55.706;13.186;2022-11-15T09:25:58;536.05;;;431.10;;
40088;SDS011;25793;55.706;13.186;2022-11-15T09:28:45;536.70;;;437.43;;
40088;SDS011;25793;55.706;13.186;2022-11-15T09:31:30;539.72;;;434.90;;
40088;SDS011;25793;55.706;13.186;2022-11-15T09:34:15;539.90;;;430.23;;
40088;SDS011;25793;55.706;13.186;2022-11-15T09:37:00;545.75;;;443.38;;
40088;SDS011;25793;55.706;13.186;2022-11-15T09:39:46;543.30;;;445.55;;
40088;SDS011;25793;55.706;13.186;2022-11-15T09:49:01;564.83;;;453.65;;
40088;SDS011;25793;55.706;13.186;2022-11-15T09:51:40;557.92;;;439.52;;
40088;SDS011;25793;55.706;13.186;2022-11-15T09:54:26;538.53;;;434.70;;
40088;SDS011;25793;55.706;13.186;2022-11-15T09:57:16;542.00;;;437.73;;
40088;SDS011;25793;55.706;13.186;2022-11-15T10:00:09;546.38;;;440.60;;
40088;SDS011;25793;55.706;13.186;2022-11-15T10:03:06;567.97;;;456.20;;
40088;SDS011;25793;55.706;13.186;2022-11-15T10:05:38;559.05;;;447.75;;
40088;SDS011;25793;55.706;13.186;2022-11-15T10:08:23;544.83;;;444.17;;
40088;SDS011;25793;55.706;13.186;2022-11-15T10:11:02;553.17;;;450.65;;
40088;SDS011;25793;55.706;13.186;2022-11-15T10:14:02;542.78;;;443.25;;
40088;SDS011;25793;55.706;13.186;2022-11-15T10:22:12;526.78;;;450.95;;
40088;SDS011;25793;55.706;13.186;2022-11-15T10:24:49;513.13;;;442.85;;
40088;SDS011;25793;55.706;13.186;2022-11-15T10:27:18;501.30;;;437.48;;
40088;SDS011;25793;55.706;13.186;2022-11-15T10:29:47;496.08;;;433.17;;
40088;SDS011;25793;55.706;13.186;2022-11-15T10:32:19;504.10;;;428.37;;
40088;SDS011;25793;55.706;13.186;2022-11-15T10:34:48;496.05;;;430.05;;
40088;SDS011;25793;55.706;13.186;2022-11-15T10:37:26;492.52;;;435.75;;
40088;SDS011;25793;55.706;13.186;2022-11-15T10:40:38;488.15;;;434.15;;
40088;SDS011;25793;55.706;13.186;2022-11-15T10:42:47;486.48;;;432.67;;
40088;SDS011;25793;55.706;13.186;2022-11-15T10:45:33;490.92;;;436.60;;
40088;SDS011;25793;55.706;13.186;2022-11-15T10:50:43;480.30;;;427.25;;
40088;SDS011;25793;55.706;13.186;2022-11-15T10:53:53;479.35;;;426.55;;
40088;SDS011;25793;55.706;13.186;2022-11-15T10:56:11;482.08;;;428.77;;
40088;SDS011;25793;55.706;13.186;2022-11-15T10:58:42;482.40;;;429.50;;
40088;SDS011;25793;55.706;13.186;2022-11-15T11:01:32;485.00;;;431.50;;
40088;SDS011;25793;55.706;13.186;2022-11-15T11:04:11;487.33;;;434.50;;
40088;SDS011;25793;55.706;13.186;2022-11-15T11:09:21;483.80;;;431.08;;
40088;SDS011;25793;55.706;13.186;2022-11-15T11:11:52;499.55;;;435.13;;
40088;SDS011;25793;55.706;13.186;2022-11-15T11:14:23;471.00;;;417.02;;
40088;SDS011;25793;55.706;13.186;2022-11-15T11:20:06;491.25;;;439.13;;
40088;SDS011;25793;55.706;13.186;2022-11-15T11:28:42;478.13;;;426.85;;
40088;SDS011;25793;55.706;13.186;2022-11-15T11:34:35;465.90;;;414.63;;
40088;SDS011;25793;55.706;13.186;2022-11-15T11:47:40;487.90;;;428.65;;
40088;SDS011;25793;55.706;13.186;2022-11-15T11:50:13;486.55;;;428.20;;
40088;SDS011;25793;55.706;13.186;2022-11-15T11:52:57;497.67;;;434.27;;
40088;SDS011;25793;55.706;13.186;2022-11-15T11:55:39;499.30;;;441.67;;
40088;SDS011;25793;55.706;13.186;2022-11-15T11:58:26;523.10;;;434.55;;
40088;SDS011;25793;55.706;13.186;2022-11-15T12:01:30;490.73;;;436.42;;
40088;SDS011;25793;55.706;13.186;2022-11-15T12:04:10;486.08;;;430.83;;
40088;SDS011;25793;55.706;13.186;2022-11-15T12:06:41;492.27;;;421.55;;
40088;SDS011;25793;55.706;13.186;2022-11-15T12:12:41;490.83;;;415.77;;
40088;SDS011;25793;55.706;13.186;2022-11-15T12:15:04;496.98;;;426.83;;
40088;SDS011;25793;55.706;13.186;2022-11-15T12:17:36;483.73;;;415.52;;
40088;SDS011;25793;55.706;13.186;2022-11-15T12:20:16;481.27;;;412.58;;
40088;SDS011;25793;55.706;13.186;2022-11-15T12:25:48;476.60;;;421.70;;
40088;SDS011;25793;55.706;13.186;2022-11-15T12:31:30;479.42;;;426.25;;
40088;SDS011;25793;55.706;13.186;2022-11-15T12:36:49;466.67;;;409.38;;
40088;SDS011;25793;55.706;13.186;2022-11-15T12:39:17;468.08;;;414.42;;
40088;SDS011;25793;55.706;13.186;2022-11-15T13:12:55;486.63;;;412.35;;
40088;SDS011;25793;55.706;13.186;2022-11-15T13:18:27;473.08;;;408.45;;
40088;SDS011;25793;55.706;13.186;2022-11-15T13:20:55;474.52;;;413.38;;
40088;SDS011;25793;55.706;13.186;2022-11-15T13:23:27;489.95;;;407.88;;
40088;SDS011;25793;55.706;13.186;2022-11-15T13:25:57;466.10;;;396.08;;
40088;SDS011;25793;55.706;13.186;2022-11-15T13:34:18;452.47;;;398.60;;
40088;SDS011;25793;55.706;13.186;2022-11-15T13:37:13;456.55;;;403.92;;
40088;SDS011;25793;55.706;13.186;2022-11-15T13:46:10;456.10;;;401.17;;
40088;SDS011;25793;55.706;13.186;2022-11-15T13:48:44;461.90;;;394.27;;
40088;SDS011;25793;55.706;13.186;2022-11-15T13:51:21;460.00;;;400.70;;
40088;SDS011;25793;55.706;13.186;2022-11-15T13:54:03;455.60;;;398.38;;
40088;SDS011;25793;55.706;13.186;2022-11-15T13:56:45;453.13;;;392.02;;
40088;SDS011;25793;55.706;13.186;2022-11-15T13:59:21;455.70;;;399.53;;
40088;SDS011;25793;55.706;13.186;2022-11-15T14:01:57;451.33;;;399.80;;
40088;SDS011;25793;55.706;13.186;2022-11-15T14:04:27;462.88;;;402.25;;
40088;SDS011;25793;55.706;13.186;2022-11-15T14:07:00;455.65;;;391.30;;
40088;SDS011;25793;55.706;13.186;2022-11-15T14:09:33;456.15;;;392.92;;
40088;SDS011;25793;55.706;13.186;2022-11-15T14:12:21;454.50;;;397.33;;
40088;SDS011;25793;55.706;13.186;2022-11-15T14:14:56;451.33;;;392.98;;
40088;SDS011;25793;55.706;13.186;2022-11-15T14:19:57;447.08;;;397.77;;
40088;SDS011;25793;55.706;13.186;2022-11-15T14:22:25;451.20;;;401.60;;
40088;SDS011;25793;55.706;13.186;2022-11-15T14:27:42;454.33;;;405.73;;
40088;SDS011;25793;55.706;13.186;2022-11-15T14:30:16;460.40;;;412.08;;
40088;SDS011;25793;55.706;13.186;2022-11-15T14:32:45;449.85;;;402.88;;
40088;SDS011;25793;55.706;13.186;2022-11-15T14:35:17;449.42;;;402.25;;
40088;SDS011;25793;55.706;13.186;2022-11-15T14:37:46;462.52;;;414.75;;
40088;SDS011;25793;55.706;13.186;2022-11-15T14:40:14;448.00;;;401.30;;
40088;SDS011;25793;55.706;13.186;2022-11-15T14:42:45;461.63;;;414.55;;
40088;SDS011;25793;55.706;13.186;2022-11-15T14:45:14;455.20;;;407.38;;
40088;SDS011;25793;55.706;13.186;2022-11-15T14:47:43;461.40;;;412.70;;
40088;SDS011;25793;55.706;13.186;2022-11-15T14:50:11;453.35;;;405.92;;
40088;SDS011;25793;55.706;13.186;2022-11-15T14:52:40;473.77;;;424.60;;
40088;SDS011;25793;55.706;13.186;2022-11-15T14:55:15;479.00;;;431.20;;
40088;SDS011;25793;55.706;13.186;2022-11-15T14:57:49;490.60;;;441.58;;
40088;SDS011;25793;55.706;13.186;2022-11-15T15:00:16;493.42;;;444.13;;
40088;SDS011;25793;55.706;13.186;2022-11-15T15:02:44;487.30;;;438.98;;
40088;SDS011;25793;55.706;13.186;2022-11-15T15:07:44;489.52;;;441.60;;
40088;SDS011;25793;55.706;13.186;2022-11-15T15:10:12;492.23;;;443.92;;
40088;SDS011;25793;55.706;13.186;2022-11-15T15:12:59;495.05;;;446.67;;
40088;SDS011;25793;55.706;13.186;2022-11-15T15:15:33;506.55;;;458.27;;
40088;SDS011;25793;55.706;13.186;2022-11-15T15:18:01;518.67;;;468.65;;
40088;SDS011;25793;55.706;13.186;2022-11-15T15:20:31;518.47;;;468.55;;
40088;SDS011;25793;55.706;13.186;2022-11-15T15:22:58;529.20;;;476.70;;
40088;SDS011;25793;55.706;13.186;2022-11-15T15:25:29;528.03;;;477.73;;
40088;SDS011;25793;55.706;13.186;2022-11-15T15:28:01;531.38;;;480.85;;
40088;SDS011;25793;55.706;13.186;2022-11-15T15:30:32;514.33;;;464.07;;
40088;SDS011;25793;55.706;13.186;2022-11-15T15:33:07;491.17;;;442.52;;
40088;SDS011;25793;55.706;13.186;2022-11-15T15:35:38;494.67;;;445.43;;
40088;SDS011;25793;55.706;13.186;2022-11-15T15:38:23;488.02;;;439.83;;
40088;SDS011;25793;55.706;13.186;2022-11-15T15:40:50;495.27;;;447.25;;
40088;SDS011;25793;55.706;13.186;2022-11-15T15:43:17;495.58;;;447.63;;
40088;SDS011;25793;55.706;13.186;2022-11-15T15:45:43;500.52;;;452.45;;
40088;SDS011;25793;55.706;13.186;2022-11-15T15:48:16;522.72;;;472.23;;
40088;SDS011;25793;55.706;13.186;2022-11-15T15:50:47;523.93;;;475.50;;
40088;SDS011;25793;55.706;13.186;2022-11-15T15:53:16;525.35;;;475.67;;
40088;SDS011;25793;55.706;13.186;2022-11-15T15:55:49;520.90;;;472.00;;
40088;SDS011;25793;55.706;13.186;2022-11-15T15:58:17;516.95;;;467.95;;
40088;SDS011;25793;55.706;13.186;2022-11-15T16:00:48;522.57;;;474.17;;
40088;SDS011;25793;55.706;13.186;2022-11-15T16:03:17;514.53;;;465.52;;
40088;SDS011;25793;55.706;13.186;2022-11-15T16:05:44;510.83;;;463.38;;
40088;SDS011;25793;55.706;13.186;2022-11-15T16:08:21;512.80;;;464.50;;
40088;SDS011;25793;55.706;13.186;2022-11-15T16:10:49;522.67;;;473.58;;
40088;SDS011;25793;55.706;13.186;2022-11-15T16:13:16;522.35;;;474.52;;
40088;SDS011;25793;55.706;13.186;2022-11-15T16:15:44;540.70;;;492.17;;
40088;SDS011;25793;55.706;13.186;2022-11-15T16:18:14;533.38;;;484.67;;
40088;SDS011;25793;55.706;13.186;2022-11-15T16:20:43;524.75;;;476.88;;
40088;SDS011;25793;55.706;13.186;2022-11-15T16:23:15;532.22;;;484.88;;
40088;SDS011;25793;55.706;13.186;2022-11-15T16:25:51;550.40;;;499.50;;
40088;SDS011;25793;55.706;13.186;2022-11-15T16:28:27;538.20;;;490.45;;
40088;SDS011;25793;55.706;13.186;2022-11-15T16:31:11;522.92;;;475.23;;
40088;SDS011;25793;55.706;13.186;2022-11-15T16:33:39;527.88;;;480.40;;
40088;SDS011;25793;55.706;13.186;2022-11-15T16:36:12;525.03;;;476.60;;
40088;SDS011;25793;55.706;13.186;2022-11-15T16:38:45;527.75;;;479.65;;
40088;SDS011;25793;55.706;13.186;2022-11-15T16:59:51;552.65;;;499.95;;
40088;SDS011;25793;55.706;13.186;2022-11-15T17:02:19;550.35;;;497.35;;
40088;SDS011;25793;55.706;13.186;2022-11-15T17:04:46;543.28;;;486.55;;
40088;SDS011;25793;55.706;13.186;2022-11-15T17:07:13;564.63;;;507.00;;
40088;SDS011;25793;55.706;13.186;2022-11-15T17:09:39;552.30;;;493.60;;
40088;SDS011;25793;55.706;13.186;2022-11-15T17:12:06;553.40;;;494.20;;
40088;SDS011;25793;55.706;13.186;2022-11-15T17:14:34;563.83;;;504.05;;
40088;SDS011;25793;55.706;13.186;2022-11-15T17:17:00;554.42;;;492.27;;
40088;SDS011;25793;55.706;13.186;2022-11-15T17:19:27;565.75;;;504.80;;
40088;SDS011;25793;55.706;13.186;2022-11-15T17:21:53;556.10;;;494.63;;
40088;SDS011;25793;55.706;13.186;2022-11-15T17:24:20;560.97;;;496.35;;
40088;SDS011;25793;55.706;13.186;2022-11-15T17:26:47;559.33;;;497.42;;
40088;SDS011;25793;55.706;13.186;2022-11-15T17:29:16;572.85;;;510.35;;
40088;SDS011;25793;55.706;13.186;2022-11-15T17:31:43;566.42;;;497.35;;
40088;SDS011;25793;55.706;13.186;2022-11-15T17:34:10;572.28;;;509.38;;
40088;SDS011;25793;55.706;13.186;2022-11-15T17:36:37;564.23;;;474.03;;
40088;SDS011;25793;55.706;13.186;2022-11-15T17:39:03;563.78;;;497.20;;